Time;durP1;ratioP1;P1;durP2;ratioP2;P2;SDS_P1;SDS_P2;PMS_P1;PMS_P2;Temp;Humidity;BMP_temperature;BMP_pressure;BME280_temperature;BME280_humidity;BME280_pressure;Samples;Min_cycle;Max_cycle;Signal;HPM_P1;HPM_P2
2021/10/25 00:01:36;;;;;;;13.40;8.13;;;;;;;10.31;100.00;102844.25;4937557;29;20350;-69
2021/10/25 00:04:22;;;;;;;12.75;8.30;;;;;;;10.31;100.00;102846.84;4937183;29;20031;-70
2021/10/25 00:07:07;;;;;;;15.93;8.73;;;;;;;10.36;100.00;102845.19;4923345;29;20031;-70
2021/10/25 00:09:53;;;;;;;14.82;8.73;;;;;;;10.25;100.00;102851.13;4937350;29;20059;-70
2021/10/25 00:12:40;;;;;;;14.40;9.10;;;;;;;10.36;100.00;102841.72;4937246;29;20453;-71
2021/10/25 00:15:27;;;;;;;16.35;8.75;;;;;;;10.18;100.00;102847.50;4924304;29;20043;-71
2021/10/25 00:18:12;;;;;;;11.23;8.10;;;;;;;10.40;100.00;102841.75;4937435;29;20035;-70
2021/10/25 00:20:58;;;;;;;17.05;9.30;;;;;;;10.12;100.00;102847.38;4936872;29;20028;-70
2021/10/25 00:23:44;;;;;;;16.38;9.05;;;;;;;10.10;100.00;102847.34;4936875;29;20453;-70
2021/10/25 00:26:31;;;;;;;15.70;8.30;;;;;;;9.90;100.00;102847.81;4936504;29;20039;-70
2021/10/25 00:29:17;;;;;;;16.05;8.98;;;;;;;10.06;100.00;102849.91;4937575;29;20028;-70
2021/10/25 00:32:03;;;;;;;14.32;9.07;;;;;;;10.02;100.00;102854.16;4937067;29;20059;-69
2021/10/25 00:34:49;;;;;;;14.77;8.70;;;;;;;9.79;100.00;102852.84;4937635;28;20032;-69
2021/10/25 00:37:34;;;;;;;14.55;8.80;;;;;;;9.67;100.00;102851.69;4936927;29;20028;-70
2021/10/25 00:40:20;;;;;;;14.20;8.65;;;;;;;9.94;100.00;102854.88;4923265;29;20100;-71
2021/10/25 00:43:06;;;;;;;15.10;8.82;;;;;;;9.97;100.00;102862.78;4937504;29;20038;-69
2021/10/25 00:45:52;;;;;;;17.67;8.82;;;;;;;9.76;100.00;102859.72;4935656;29;20036;-70
2021/10/25 00:48:38;;;;;;;13.73;9.18;;;;;;;9.63;100.00;102855.13;4936213;29;20028;-71
2021/10/25 00:51:24;;;;;;;15.02;8.75;;;;;;;9.92;100.00;102861.81;4936842;29;20039;-70
2021/10/25 00:54:09;;;;;;;16.80;8.93;;;;;;;9.89;100.00;102861.75;4937034;29;20114;-71
2021/10/25 00:56:55;;;;;;;13.93;8.30;;;;;;;9.68;100.00;102851.75;4936751;29;20027;-71
2021/10/25 00:59:41;;;;;;;13.73;8.98;;;;;;;9.84;100.00;102848.56;4923430;29;20361;-69
2021/10/25 01:02:27;;;;;;;19.08;8.90;;;;;;;9.77;100.00;102849.28;4937348;29;20444;-70
2021/10/25 01:05:12;;;;;;;15.52;8.65;;;;;;;9.47;100.00;102840.84;4936835;29;20110;-70
2021/10/25 01:08:01;;;;;;;13.93;9.00;;;;;;;9.75;100.00;102842.28;4936118;29;20055;-71
2021/10/25 01:10:47;;;;;;;16.38;9.20;;;;;;;9.65;100.00;102840.34;4935979;29;20048;-69
2021/10/25 01:13:33;;;;;;;13.25;8.73;;;;;;;9.69;100.00;102842.16;4936843;29;20039;-70
2021/10/25 01:16:19;;;;;;;15.80;9.85;;;;;;;9.30;100.00;102842.22;4935883;29;20024;-71
2021/10/25 01:19:05;;;;;;;18.80;9.63;;;;;;;9.51;100.00;102839.16;4937202;28;20090;-70
2021/10/25 01:21:51;;;;;;;15.55;9.18;;;;;;;9.49;100.00;102846.13;4936889;29;20027;-70
2021/10/25 01:24:37;;;;;;;17.42;9.40;;;;;;;9.26;100.00;102849.97;4937063;29;20035;-70
2021/10/25 01:27:23;;;;;;;20.83;9.38;;;;;;;9.29;100.00;102842.19;4940487;28;20045;-69
2021/10/25 01:30:09;;;;;;;16.15;9.48;;;;;;;9.38;100.00;102845.88;4940248;29;20043;-69
2021/10/25 01:32:55;;;;;;;14.50;8.85;;;;;;;9.30;100.00;102846.56;4940905;29;20524;-70
2021/10/25 01:35:43;;;;;;;16.85;8.88;;;;;;;9.46;100.00;102843.44;4940230;29;20081;-70
2021/10/25 01:38:28;;;;;;;13.65;8.93;;;;;;;9.73;100.00;102842.22;4926144;29;20119;-70
2021/10/25 01:41:14;;;;;;;13.10;8.35;;;;;;;9.33;100.00;102844.03;4939465;29;20027;-69
2021/10/25 01:44:00;;;;;;;14.57;8.13;;;;;;;9.22;100.00;102840.28;4939866;29;20365;-70
2021/10/25 01:46:46;;;;;;;16.88;8.35;;;;;;;9.34;100.00;102838.81;4926171;29;20023;-70
2021/10/25 01:49:32;;;;;;;14.27;8.45;;;;;;;9.58;100.00;102843.69;4940131;29;20047;-70
2021/10/25 01:52:18;;;;;;;16.08;8.35;;;;;;;9.30;100.00;102847.47;4940177;29;20027;-70
2021/10/25 01:55:05;;;;;;;13.23;7.80;;;;;;;9.42;100.00;102845.09;4939056;29;20369;-71
2021/10/25 01:57:50;;;;;;;17.33;9.00;;;;;;;8.95;100.00;102844.88;4939772;29;20504;-70
2021/10/25 02:00:36;;;;;;;12.73;8.32;;;;;;;9.22;100.00;102843.81;4939049;29;20532;-70
2021/10/25 02:03:22;;;;;;;13.40;8.85;;;;;;;9.22;100.00;102845.50;4939180;29;20458;-71
2021/10/25 02:06:08;;;;;;;12.90;8.75;;;;;;;9.09;100.00;102846.09;4939664;29;20074;-70
2021/10/25 02:08:53;;;;;;;13.52;8.65;;;;;;;9.10;100.00;102845.25;4939344;29;20128;-71
2021/10/25 02:11:40;;;;;;;11.88;8.02;;;;;;;8.84;100.00;102846.41;4938728;29;20470;-70
2021/10/25 02:14:26;;;;;;;18.10;8.35;;;;;;;8.83;100.00;102853.34;4938034;29;20036;-70
2021/10/25 02:17:12;;;;;;;16.48;7.65;;;;;;;8.55;100.00;102844.78;4938697;29;20028;-70
2021/10/25 02:19:58;;;;;;;14.38;8.35;;;;;;;8.63;100.00;102844.16;4939672;29;20032;-70
2021/10/25 02:22:44;;;;;;;12.32;7.70;;;;;;;8.69;100.00;102844.28;4939372;29;20346;-70
2021/10/25 02:25:29;;;;;;;13.98;7.65;;;;;;;8.91;100.00;102850.91;4938726;29;20142;-70
2021/10/25 02:28:15;;;;;;;12.13;8.20;;;;;;;8.54;100.00;102857.00;4939525;29;20028;-70
2021/10/25 02:31:01;;;;;;;14.85;8.32;;;;;;;8.85;100.00;102856.00;4938369;29;20099;-70
2021/10/25 02:33:47;;;;;;;13.65;7.93;;;;;;;9.19;100.00;102855.91;4939296;29;20118;-70
2021/10/25 02:36:33;;;;;;;13.68;8.20;;;;;;;8.87;100.00;102856.91;4939232;28;20452;-71
2021/10/25 02:39:19;;;;;;;14.35;7.78;;;;;;;8.64;100.00;102858.09;4938712;29;20055;-70
2021/10/25 02:42:04;;;;;;;17.27;8.65;;;;;;;8.75;100.00;102854.91;4939382;29;20036;-69
2021/10/25 02:44:50;;;;;;;13.55;8.20;;;;;;;8.62;100.00;102859.78;4938933;29;20058;-70
2021/10/25 02:47:36;;;;;;;13.63;7.97;;;;;;;8.97;100.00;102870.22;4937867;29;20059;-70
2021/10/25 02:50:22;;;;;;;12.77;7.95;;;;;;;8.80;100.00;102860.25;4924410;29;20031;-70
2021/10/25 02:53:11;;;;;;;13.20;7.95;;;;;;;8.83;100.00;102860.28;4938155;29;20036;-70
2021/10/25 02:55:57;;;;;;;13.85;8.00;;;;;;;8.22;100.00;102863.13;4937966;29;20028;-69
2021/10/25 02:58:43;;;;;;;13.25;8.20;;;;;;;8.60;100.00;102858.88;4924896;29;20134;-70
2021/10/25 03:01:29;;;;;;;12.50;7.95;;;;;;;8.59;100.00;102857.97;4938368;29;20479;-72
2021/10/25 03:04:14;;;;;;;12.30;8.07;;;;;;;8.68;100.00;102850.34;4938490;29;20106;-71
2021/10/25 03:07:00;;;;;;;10.80;7.60;;;;;;;8.75;100.00;102860.13;4938266;29;20119;-72
2021/10/25 03:09:46;;;;;;;14.23;8.60;;;;;;;8.79;100.00;102861.97;4938106;29;20083;-72
2021/10/25 03:12:33;;;;;;;15.45;8.15;;;;;;;8.76;100.00;102855.78;4938060;29;20040;-72
2021/10/25 03:15:19;;;;;;;11.55;8.27;;;;;;;8.60;100.00;102853.66;4938633;29;20031;-72
2021/10/25 03:18:05;;;;;;;25.70;13.40;;;;;;;8.30;100.00;102856.38;4938286;29;20129;-71
2021/10/25 03:20:51;;;;;;;27.80;13.95;;;;;;;8.51;100.00;102856.00;4939051;28;20046;-71
2021/10/25 03:23:38;;;;;;;17.23;9.50;;;;;;;8.16;100.00;102864.66;4938683;29;20038;-71
2021/10/25 03:26:24;;;;;;;13.93;8.55;;;;;;;8.18;100.00;102868.19;4938057;29;20468;-71
2021/10/25 03:29:09;;;;;;;14.70;8.70;;;;;;;7.83;100.00;102874.16;4937454;29;20035;-70
2021/10/25 03:31:55;;;;;;;14.40;8.30;;;;;;;8.32;100.00;102872.94;4938311;29;20106;-71
2021/10/25 03:34:41;;;;;;;13.63;8.23;;;;;;;8.10;100.00;102883.66;4937810;29;20035;-71
2021/10/25 03:37:28;;;;;;;15.25;8.35;;;;;;;7.75;100.00;102889.63;4923143;29;20027;-71
2021/10/25 03:40:15;;;;;;;15.30;8.60;;;;;;;7.91;100.00;102886.59;4937905;29;20036;-71
2021/10/25 03:43:00;;;;;;;19.35;10.80;;;;;;;8.22;100.00;102876.19;4937856;29;20034;-72
2021/10/25 03:45:59;;;;;;;19.88;11.43;;;;;;;8.24;100.00;102871.00;4925122;28;20098;-71
2021/10/25 03:48:52;;;;;;;23.88;11.70;;;;;;;8.08;100.00;102876.63;4937860;29;20069;-71
2021/10/25 03:51:40;;;;;;;25.77;12.13;;;;;;;8.27;100.00;102869.34;4938361;28;20027;-72
2021/10/25 03:54:54;;;;;;;19.08;10.20;;;;;;;7.81;100.00;102868.94;4938551;29;20038;-71
2021/10/25 04:04:03;;;;;;;20.73;10.68;;;;;;;8.13;100.00;102872.41;4938037;28;20524;-71
2021/10/25 04:28:02;;;;;;;21.30;13.20;;;;;;;8.03;100.00;102872.97;4937828;28;20023;-72
2021/10/25 04:30:54;;;;;;;26.15;13.00;;;;;;;8.34;100.00;102866.06;4923863;29;20445;-72
2021/10/25 04:33:40;;;;;;;32.38;17.80;;;;;;;7.99;100.00;102864.19;4937165;29;20035;-71
2021/10/25 04:36:26;;;;;;;27.83;16.88;;;;;;;8.27;100.00;102861.50;4937496;29;20020;-71
2021/10/25 04:39:13;;;;;;;33.97;19.15;;;;;;;8.11;100.00;102861.91;4936516;29;20063;-71
2021/10/25 04:41:58;;;;;;;31.70;14.90;;;;;;;8.08;100.00;102871.41;4937078;29;20036;-71
2021/10/25 04:44:45;;;;;;;25.27;13.10;;;;;;;7.72;100.00;102870.41;4937746;28;20051;-72
2021/10/25 04:47:31;;;;;;;25.42;12.35;;;;;;;7.48;100.00;102873.16;4937751;28;20035;-72
2021/10/25 04:50:17;;;;;;;28.98;14.48;;;;;;;7.24;100.00;102876.78;4936882;29;20039;-71
2021/10/25 04:53:03;;;;;;;26.88;12.82;;;;;;;7.35;100.00;102875.38;4937440;29;20372;-71
2021/10/25 04:55:48;;;;;;;26.48;13.95;;;;;;;7.65;100.00;102876.28;4937547;28;20122;-72
2021/10/25 04:58:34;;;;;;;29.02;17.60;;;;;;;7.59;100.00;102878.72;4937349;29;20027;-71
2021/10/25 05:01:20;;;;;;;45.45;26.38;;;;;;;7.64;100.00;102884.94;4940541;28;20134;-72
2021/10/25 05:04:06;;;;;;;50.10;29.77;;;;;;;7.68;100.00;102890.28;4940631;29;20457;-72
2021/10/25 05:06:52;;;;;;;56.15;29.73;;;;;;;7.59;100.00;102894.38;4940853;29;20477;-71
2021/10/25 05:09:37;;;;;;;50.17;28.33;;;;;;;7.79;100.00;102891.47;4940864;28;20051;-71
2021/10/25 05:12:24;;;;;;;49.85;26.83;;;;;;;7.66;100.00;102891.06;4939981;29;20027;-72
2021/10/25 05:15:11;;;;;;;37.13;20.77;;;;;;;7.56;100.00;102896.88;4940806;29;20400;-73
2021/10/25 05:17:56;;;;;;;28.35;17.02;;;;;;;7.80;100.00;102901.06;4940449;29;20031;-72
2021/10/25 05:20:42;;;;;;;23.92;15.57;;;;;;;7.61;100.00;102895.28;4940924;28;20102;-72
2021/10/25 05:23:28;;;;;;;21.92;13.68;;;;;;;7.60;100.00;102904.81;4926825;29;20039;-72
2021/10/25 05:26:14;;;;;;;23.35;12.88;;;;;;;7.37;100.00;102912.81;4940430;29;20039;-72
2021/10/25 05:29:00;;;;;;;21.50;11.75;;;;;;;7.14;100.00;102903.38;4939928;28;20058;-71
2021/10/25 05:31:47;;;;;;;24.00;12.40;;;;;;;7.39;100.00;102914.63;4940446;29;20046;-72
2021/10/25 05:34:33;;;;;;;20.17;12.02;;;;;;;7.37;100.00;102923.25;4940005;29;20035;-72
2021/10/25 05:37:19;;;;;;;22.38;12.80;;;;;;;7.61;100.00;102923.97;4940615;29;20338;-72
2021/10/25 05:40:06;;;;;;;23.63;13.18;;;;;;;7.56;100.00;102916.00;4940262;29;20071;-71
2021/10/25 05:42:52;;;;;;;20.90;12.05;;;;;;;7.32;100.00;102914.41;4940682;28;20042;-71
2021/10/25 05:45:38;;;;;;;22.55;12.02;;;;;;;7.73;100.00;102914.81;4940504;28;20027;-72
2021/10/25 05:48:24;;;;;;;22.45;12.13;;;;;;;7.91;100.00;102915.31;4940887;28;20094;-71
2021/10/25 05:51:11;;;;;;;19.20;11.10;;;;;;;8.17;100.00;102918.66;4940096;29;20430;-72
2021/10/25 05:54:02;;;;;;;17.83;10.73;;;;;;;8.23;100.00;102926.66;4940539;28;20028;-72
2021/10/25 05:56:48;;;;;;;17.42;9.93;;;;;;;8.04;100.00;102927.00;4940263;28;20475;-72
2021/10/25 05:59:35;;;;;;;18.00;10.52;;;;;;;8.27;100.00;102931.13;4939320;29;20031;-71
2021/10/25 06:02:28;;;;;;;20.25;10.45;;;;;;;7.95;100.00;102938.03;4940293;28;20039;-70
2021/10/25 06:05:14;;;;;;;21.85;11.35;;;;;;;7.69;100.00;102943.34;4940373;28;20024;-72
2021/10/25 06:08:00;;;;;;;27.20;14.32;;;;;;;8.07;100.00;102937.50;4939999;28;20430;-72
2021/10/25 06:10:47;;;;;;;23.80;12.55;;;;;;;8.03;100.00;102946.06;4939274;28;20452;-71
2021/10/25 06:13:41;;;;;;;26.83;13.43;;;;;;;8.29;100.00;102937.28;4939372;29;20027;-73
2021/10/25 06:16:41;;;;;;;15.60;9.88;;;;;;;8.58;100.00;102949.38;4939260;29;20110;-71
2021/10/25 06:19:27;;;;;;;18.27;9.23;;;;;;;8.66;100.00;102960.94;4939657;29;20031;-71
2021/10/25 06:22:15;;;;;;;18.80;9.18;;;;;;;9.12;100.00;102950.75;4939338;29;20040;-71
2021/10/25 06:25:01;;;;;;;17.02;10.40;;;;;;;9.26;100.00;102958.09;4939378;29;20358;-70
2021/10/25 06:27:47;;;;;;;13.18;8.10;;;;;;;9.00;100.00;102956.59;4939479;28;20098;-72
2021/10/25 06:30:35;;;;;;;19.73;9.23;;;;;;;9.47;100.00;102961.22;4939020;29;20057;-72
2021/10/25 06:33:22;;;;;;;16.95;9.30;;;;;;;9.41;100.00;102961.06;4938810;29;20041;-72
2021/10/25 06:36:08;;;;;;;19.63;9.95;;;;;;;9.83;100.00;102958.50;4938159;29;20058;-72
2021/10/25 06:38:55;;;;;;;20.17;9.35;;;;;;;9.75;100.00;102957.44;4939715;29;20095;-72
2021/10/25 06:41:41;;;;;;;16.30;9.13;;;;;;;10.11;100.00;102960.88;4924752;29;20036;-71
2021/10/25 06:44:27;;;;;;;17.92;9.00;;;;;;;10.31;100.00;102956.91;4938448;29;20027;-72
2021/10/25 06:47:13;;;;;;;24.10;12.55;;;;;;;9.97;100.00;102964.94;4938892;29;20070;-72
2021/10/25 06:49:59;;;;;;;16.13;9.13;;;;;;;9.69;100.00;102960.81;4939066;28;20457;-71
2021/10/25 06:52:46;;;;;;;15.52;8.93;;;;;;;9.66;100.00;102957.25;4938396;29;20361;-70
2021/10/25 06:55:34;;;;;;;15.15;8.10;;;;;;;9.52;100.00;102954.34;4938817;29;20357;-71
2021/10/25 06:58:21;;;;;;;14.27;8.05;;;;;;;9.71;100.00;102958.25;4938350;29;20101;-71
2021/10/25 07:01:09;;;;;;;10.95;7.50;;;;;;;10.34;100.00;102962.22;4938818;29;20071;-71
2021/10/25 07:03:55;;;;;;;16.40;10.00;;;;;;;10.15;100.00;102957.47;4938820;29;20039;-71
2021/10/25 07:06:41;;;;;;;13.88;7.95;;;;;;;10.32;100.00;102956.03;4938195;29;20031;-72
2021/10/25 07:09:27;;;;;;;12.98;8.10;;;;;;;10.22;100.00;102954.13;4936798;29;20055;-71
2021/10/25 07:12:13;;;;;;;14.15;7.20;;;;;;;10.69;100.00;102949.75;4937626;29;20051;-72
2021/10/25 07:15:00;;;;;;;13.52;7.50;;;;;;;10.75;100.00;102949.84;4925060;29;20027;-71
2021/10/25 08:06:05;;;;;;;13.93;7.50;;;;;;;13.63;99.07;102953.28;4936735;29;20020;-72
2021/10/25 08:11:53;;;;;;;18.20;10.10;;;;;;;14.06;95.38;102940.28;4937159;29;20070;-71
2021/10/25 08:14:44;;;;;;;11.80;7.10;;;;;;;14.19;98.11;102947.38;4937250;29;20038;-71
2021/10/25 08:17:41;;;;;;;9.98;6.03;;;;;;;13.57;96.88;102945.31;4937078;29;20365;-72
2021/10/25 08:20:27;;;;;;;13.10;6.53;;;;;;;13.80;93.39;102941.97;4937052;29;20103;-71
2021/10/25 08:23:13;;;;;;;11.63;6.65;;;;;;;14.16;91.43;102946.47;4936906;29;20456;-72
2021/10/25 08:25:59;;;;;;;12.48;7.05;;;;;;;13.94;94.17;102942.00;4936865;29;20054;-72
2021/10/25 08:28:45;;;;;;;13.70;7.55;;;;;;;13.86;95.81;102947.25;4936465;29;20024;-72
2021/10/25 08:31:34;;;;;;;13.95;7.68;;;;;;;13.60;100.00;102940.97;4937181;29;20452;-71
2021/10/25 08:34:49;;;;;;;11.15;6.72;;;;;;;12.91;100.00;102936.94;4938222;29;20043;-72
2021/10/25 08:40:14;;;;;;;11.40;6.75;;;;;;;13.47;96.98;102939.13;4941609;29;20023;-71
2021/10/25 08:43:00;;;;;;;12.05;6.65;;;;;;;14.35;96.34;102935.16;4941288;29;20037;-71
2021/10/25 08:45:50;;;;;;;12.30;6.35;;;;;;;13.69;92.94;102927.84;4926899;29;20027;-72
2021/10/25 08:48:36;;;;;;;16.20;7.03;;;;;;;14.04;97.08;102931.53;4940861;29;20027;-71
2021/10/25 08:51:25;;;;;;;20.17;7.72;;;;;;;14.09;95.43;102935.03;4940819;29;20035;-71
2021/10/25 08:54:11;;;;;;;17.33;7.50;;;;;;;14.32;95.87;102924.59;4940456;29;20039;-72
2021/10/25 08:57:01;;;;;;;20.77;7.72;;;;;;;14.29;93.76;102924.56;4940968;29;20031;-72
2021/10/25 09:00:04;;;;;;;16.00;6.80;;;;;;;13.76;93.37;102927.00;4940640;29;20042;-72
2021/10/25 09:02:59;;;;;;;13.27;6.70;;;;;;;13.96;93.41;102935.00;4940843;29;20039;-71
2021/10/25 09:05:57;;;;;;;15.68;6.75;;;;;;;13.78;93.91;102930.50;4939922;29;20030;-71
2021/10/25 09:08:42;;;;;;;9.77;6.18;;;;;;;13.94;92.59;102928.81;4940133;29;20035;-73
2021/10/25 09:11:28;;;;;;;9.02;5.68;;;;;;;13.87;89.70;102933.19;4940431;29;20042;-72
2021/10/25 09:14:15;;;;;;;12.30;6.53;;;;;;;13.86;89.23;102928.78;4939094;29;20038;-72
2021/10/25 09:17:04;;;;;;;13.93;5.45;;;;;;;13.30;96.24;102932.88;4926365;29;20032;-72
2021/10/25 09:19:50;;;;;;;14.13;6.10;;;;;;;13.46;92.19;102932.09;4926389;29;20111;-72
2021/10/25 09:22:36;;;;;;;11.10;6.10;;;;;;;13.49;91.40;102929.50;4939878;29;20119;-71
2021/10/25 09:25:31;;;;;;;12.63;5.93;;;;;;;13.89;89.43;102926.19;4940183;29;20039;-72
2021/10/25 09:28:24;;;;;;;14.65;5.57;;;;;;;13.38;91.31;102920.63;4939670;29;20471;-70
2021/10/25 09:31:17;;;;;;;9.70;5.22;;;;;;;13.62;91.75;102920.78;4939593;29;20031;-71
2021/10/25 09:34:11;;;;;;;13.80;5.55;;;;;;;13.81;89.16;102922.63;4940081;29;20032;-71
2021/10/25 09:37:14;;;;;;;11.32;5.40;;;;;;;13.63;89.64;102917.25;4925369;29;20024;-71
2021/10/25 09:40:17;;;;;;;8.82;5.20;;;;;;;13.89;86.58;102914.75;4940265;29;20139;-72
2021/10/25 09:43:34;;;;;;;12.35;5.85;;;;;;;14.21;85.41;102899.94;4940085;29;20031;-71
2021/10/25 09:48:58;;;;;;;14.82;5.70;;;;;;;14.11;82.68;102904.28;4938658;29;20046;-72
2021/10/25 09:49:44;;;;;;;10.10;5.32;;;;;;;14.08;85.55;102899.03;4939922;29;20032;-72
2021/10/25 09:52:41;;;;;;;11.63;5.38;;;;;;;14.13;85.67;102897.25;4939908;29;20382;-72
2021/10/25 09:55:27;;;;;;;12.25;4.95;;;;;;;14.06;85.56;102898.13;4939967;29;20037;-71
2021/10/25 09:58:22;;;;;;;12.50;5.93;;;;;;;13.97;82.92;102891.94;4939583;29;20035;-71
2021/10/25 10:01:10;;;;;;;10.55;6.00;;;;;;;14.19;85.70;102883.22;4926595;29;20038;-71
2021/10/25 10:03:56;;;;;;;9.15;5.43;;;;;;;13.43;85.30;102876.78;4925961;29;20031;-71
2021/10/25 10:06:42;;;;;;;11.80;5.28;;;;;;;13.97;85.94;102882.28;4939444;29;20046;-71
2021/10/25 10:09:29;;;;;;;11.98;5.65;;;;;;;13.89;84.18;102880.47;4939461;29;20051;-72
2021/10/25 10:12:19;;;;;;;9.20;5.68;;;;;;;12.98;87.25;102876.50;4925420;29;20035;-72
2021/10/25 10:15:06;;;;;;;9.27;5.32;;;;;;;13.67;87.03;102868.97;4939280;29;20071;-71
2021/10/25 10:17:56;;;;;;;12.23;5.88;;;;;;;13.35;87.85;102856.56;4938641;29;20036;-71
2021/10/25 10:20:46;;;;;;;12.63;5.60;;;;;;;13.47;87.82;102851.34;4939194;29;20058;-71
2021/10/25 10:23:33;;;;;;;12.98;5.40;;;;;;;13.29;88.97;102841.59;4924849;29;20448;-71
2021/10/25 10:26:20;;;;;;;11.07;5.63;;;;;;;13.94;83.49;102839.19;4939030;29;20428;-71
2021/10/25 10:29:15;;;;;;;10.05;5.28;;;;;;;14.37;83.13;102831.41;4939279;29;20038;-71
2021/10/25 10:32:05;;;;;;;11.65;5.70;;;;;;;14.84;79.38;102836.69;4938955;29;20027;-72
2021/10/25 10:34:53;;;;;;;10.57;5.40;;;;;;;14.64;80.17;102836.66;4939321;29;20441;-72
2021/10/25 10:37:41;;;;;;;15.77;5.57;;;;;;;15.04;79.11;102836.63;4924758;29;20110;-72
2021/10/25 10:40:39;;;;;;;8.82;5.15;;;;;;;14.20;78.37;102834.88;4938875;29;20042;-71
2021/10/25 10:43:26;;;;;;;10.27;5.45;;;;;;;14.02;84.49;102833.09;4939248;29;20476;-71
2021/10/25 10:46:15;;;;;;;8.00;4.85;;;;;;;14.40;80.24;102825.25;4938512;29;20075;-71
2021/10/25 10:49:01;;;;;;;9.55;5.32;;;;;;;14.26;78.99;102811.16;4939043;29;20067;-71
2021/10/25 10:52:11;;;;;;;9.15;4.85;;;;;;;15.02;77.70;102812.88;4938476;29;20039;-72
2021/10/25 11:00:48;;;;;;;20.52;5.78;;;;;;;14.53;76.60;102796.25;4939079;28;20078;-71
2021/10/25 11:03:35;;;;;;;14.63;6.68;;;;;;;14.21;81.29;102790.09;4938122;29;20441;-72
2021/10/25 11:06:29;;;;;;;17.48;6.70;;;;;;;14.33;83.36;102790.09;4938507;29;20035;-72
2021/10/25 11:09:15;;;;;;;11.38;5.03;;;;;;;15.05;80.27;102790.84;4938232;29;20079;-71
2021/10/25 11:12:10;;;;;;;13.90;5.90;;;;;;;14.95;76.67;102783.84;4936922;29;20028;-72
2021/10/25 11:15:02;;;;;;;16.48;6.05;;;;;;;15.56;74.49;102764.28;4938367;29;20030;-72
2021/10/25 11:17:59;;;;;;;17.85;5.63;;;;;;;15.61;73.94;102771.28;4924694;29;20028;-72
2021/10/25 11:20:45;;;;;;;11.77;5.13;;;;;;;14.93;74.34;102761.84;4937932;29;20031;-72
2021/10/25 11:23:38;;;;;;;20.33;11.07;;;;;;;15.79;73.88;102752.66;4938225;29;20027;-71
2021/10/25 11:26:29;;;;;;;10.38;5.25;;;;;;;15.33;74.66;102742.34;4938923;28;20035;-71
2021/10/25 11:29:18;;;;;;;10.18;5.10;;;;;;;15.83;71.72;102745.63;4937314;29;20027;-71
2021/10/25 11:32:06;;;;;;;9.85;5.28;;;;;;;15.78;70.88;102744.75;4925097;29;20038;-72
2021/10/25 11:34:55;;;;;;;8.35;4.97;;;;;;;15.91;69.76;102744.66;4924262;29;20027;-71
2021/10/25 11:37:49;;;;;;;12.85;5.18;;;;;;;16.88;68.59;102739.38;4937822;29;20408;-72
2021/10/25 11:40:35;;;;;;;10.80;4.50;;;;;;;14.88;71.15;102738.13;4937472;29;20388;-72
2021/10/25 11:43:30;;;;;;;7.38;4.50;;;;;;;15.86;73.13;102729.69;4936514;29;20086;-72
2021/10/25 11:46:21;;;;;;;9.20;4.68;;;;;;;16.04;69.45;102733.09;4937220;29;20084;-72
2021/10/25 11:49:07;;;;;;;7.85;4.43;;;;;;;15.81;68.71;102727.13;4937344;29;20032;-72
2021/10/25 11:51:55;;;;;;;9.65;4.90;;;;;;;15.86;68.20;102724.41;4937415;29;20031;-71
2021/10/25 11:54:45;;;;;;;12.77;5.93;;;;;;;16.72;66.76;102720.13;4937592;29;20638;-72
2021/10/25 11:57:31;;;;;;;9.57;5.07;;;;;;;16.60;66.33;102725.53;4937293;29;20027;-71
2021/10/25 12:00:22;;;;;;;8.65;4.22;;;;;;;16.51;65.68;102724.78;4937244;29;20047;-71
2021/10/25 12:03:10;;;;;;;11.70;4.90;;;;;;;15.61;66.20;102706.97;4937453;29;20032;-71
2021/10/25 12:05:56;;;;;;;13.70;4.32;;;;;;;15.95;67.36;102714.66;4937177;29;20464;-71
2021/10/25 12:09:06;;;;;;;8.88;3.88;;;;;;;15.80;67.15;102714.78;4937252;28;20050;-71
2021/10/25 12:12:06;;;;;;;11.18;4.80;;;;;;;15.30;68.08;102708.88;4937710;29;20368;-71
2021/10/25 12:14:57;;;;;;;20.42;5.10;;;;;;;14.39;71.65;102713.59;4937424;29;20500;-72
2021/10/25 12:17:43;;;;;;;10.20;6.03;;;;;;;15.36;72.02;102703.63;4937180;29;20034;-71
2021/10/25 12:20:32;;;;;;;13.05;8.27;;;;;;;15.38;72.01;102706.25;4924001;29;20061;-72
2021/10/25 12:23:21;;;;;;;6.05;4.13;;;;;;;15.77;70.67;102700.69;4937154;29;20038;-72
2021/10/25 12:26:06;;;;;;;7.65;4.28;;;;;;;15.18;69.95;102702.81;4937443;29;20346;-71
2021/10/25 12:28:52;;;;;;;7.55;4.00;;;;;;;15.91;70.85;102697.06;4937410;29;20024;-71
2021/10/25 12:31:38;;;;;;;7.68;4.70;;;;;;;16.25;69.42;102693.25;4937573;29;20024;-73
2021/10/25 12:34:24;;;;;;;8.25;4.35;;;;;;;15.60;69.00;102692.03;4936269;29;20038;-71
2021/10/25 12:37:27;;;;;;;11.70;8.05;;;;;;;15.55;69.86;102693.81;4936642;29;20028;-71
2021/10/25 12:40:18;;;;;;;6.82;4.53;;;;;;;15.32;70.19;102695.69;4936747;29;20122;-71
2021/10/25 12:43:05;;;;;;;7.35;4.55;;;;;;;15.54;67.98;102692.94;4923059;29;20127;-72
2021/10/25 12:46:03;;;;;;;7.38;4.30;;;;;;;15.36;70.13;102693.06;4923291;29;20118;-72
2021/10/25 12:48:53;;;;;;;7.07;4.40;;;;;;;15.87;69.63;102694.47;4923508;29;20035;-72
2021/10/25 12:51:42;;;;;;;9.15;4.88;;;;;;;15.89;70.41;102697.97;4923114;29;20348;-72
2021/10/25 12:54:33;;;;;;;5.13;4.03;;;;;;;15.61;68.86;102691.13;4922337;29;20035;-71
2021/10/25 12:57:21;;;;;;;9.32;4.88;;;;;;;15.26;70.52;102685.16;4937025;29;20346;-72
2021/10/25 13:00:13;;;;;;;6.45;4.50;;;;;;;15.29;71.17;102687.75;4935779;29;20031;-72
2021/10/25 13:02:59;;;;;;;10.95;4.88;;;;;;;14.50;72.47;102700.38;4922779;29;20449;-71
2021/10/25 13:05:49;;;;;;;15.18;4.85;;;;;;;14.46;74.89;102688.97;4936906;29;20028;-72
2021/10/25 13:08:36;;;;;;;13.80;5.05;;;;;;;15.20;73.27;102685.19;4936926;29;20028;-71
2021/10/25 13:11:22;;;;;;;14.30;5.63;;;;;;;15.75;70.86;102681.34;4922785;29;20031;-72
2021/10/25 13:14:09;;;;;;;6.80;4.53;;;;;;;14.72;71.65;102686.28;4936914;29;20036;-71
2021/10/25 13:16:54;;;;;;;7.88;4.43;;;;;;;14.60;72.17;102681.88;4936549;29;20158;-72
2021/10/25 13:19:40;;;;;;;8.10;4.47;;;;;;;15.39;72.82;102676.31;4936677;29;20027;-73
2021/10/25 13:22:29;;;;;;;6.40;4.90;;;;;;;15.13;73.15;102673.78;4940459;29;20028;-72
2021/10/25 13:25:15;;;;;;;17.35;5.80;;;;;;;14.31;71.98;102673.16;4940344;29;20042;-72
2021/10/25 13:28:05;;;;;;;10.30;4.80;;;;;;;14.38;74.55;102664.38;4939687;29;20027;-71
2021/10/25 13:30:50;;;;;;;10.93;5.05;;;;;;;13.81;75.33;102666.16;4940352;29;20035;-71
2021/10/25 13:33:40;;;;;;;14.63;5.15;;;;;;;14.12;75.90;102668.75;4939999;29;20032;-71
2021/10/25 13:36:26;;;;;;;10.23;4.70;;;;;;;14.38;74.36;102668.75;4939311;29;20082;-71
2021/10/25 13:39:13;;;;;;;6.68;4.53;;;;;;;14.51;73.32;102667.88;4939914;29;20036;-72
2021/10/25 13:41:59;;;;;;;6.28;4.00;;;;;;;14.78;73.39;102660.75;4939370;29;20031;-72
2021/10/25 13:44:45;;;;;;;9.05;5.00;;;;;;;14.47;72.68;102656.44;4940228;29;20035;-72
2021/10/25 13:47:31;;;;;;;8.23;4.68;;;;;;;14.17;75.69;102656.47;4940005;29;20755;-71
2021/10/25 13:50:18;;;;;;;11.77;4.90;;;;;;;14.27;75.28;102667.94;4939069;29;20048;-71
2021/10/25 13:53:04;;;;;;;9.98;4.70;;;;;;;14.03;79.58;102660.88;4940042;29;20028;-71
2021/10/25 13:55:49;;;;;;;9.55;4.65;;;;;;;14.00;79.48;102657.38;4939363;29;20432;-72
2021/10/25 13:58:36;;;;;;;8.13;5.07;;;;;;;13.93;78.76;102653.88;4939715;29;20028;-72
2021/10/25 14:01:23;;;;;;;12.57;5.28;;;;;;;14.26;78.10;102655.59;4939687;29;20032;-71
2021/10/25 14:04:14;;;;;;;13.25;6.15;;;;;;;13.91;80.01;102658.25;4939288;29;20039;-71
2021/10/25 14:07:00;;;;;;;12.57;5.15;;;;;;;14.26;82.08;102650.31;4938679;29;20031;-72
2021/10/25 14:09:54;;;;;;;14.20;5.70;;;;;;;14.46;78.75;102654.69;4938491;29;20087;-72
2021/10/25 14:12:40;;;;;;;11.02;5.70;;;;;;;14.29;76.00;102655.59;4940360;29;20032;-72
2021/10/25 14:15:28;;;;;;;9.40;5.40;;;;;;;13.89;79.79;102643.31;4939642;29;20031;-72
2021/10/25 14:18:15;;;;;;;8.77;5.30;;;;;;;13.85;79.90;102639.81;4924681;29;20030;-72
2021/10/25 14:21:01;;;;;;;8.65;5.60;;;;;;;13.72;83.08;102652.97;4938991;29;20037;-71